sensor_id;sensor_type;location;lat;lon;timestamp;pressure;altitude;pressure_sealevel;temperature;humidity
73501;BME280;61721;42.206;25.320;2023-08-08T00:00:55;99093.25;;;24.31;39.75
73501;BME280;61721;42.206;25.320;2023-08-08T00:03:24;99090.59;;;24.56;39.33
73501;BME280;61721;42.206;25.320;2023-08-08T00:05:51;99087.13;;;24.23;39.72
73501;BME280;61721;42.206;25.320;2023-08-08T00:08:18;99083.13;;;24.46;39.34
73501;BME280;61721;42.206;25.320;2023-08-08T00:10:47;99095.63;;;24.74;39.03
73501;BME280;61721;42.206;25.320;2023-08-08T00:13:14;99098.25;;;24.39;39.44
73501;BME280;61721;42.206;25.320;2023-08-08T00:15:41;99090.56;;;24.46;38.79
73501;BME280;61721;42.206;25.320;2023-08-08T00:18:08;99086.22;;;24.65;38.80
73501;BME280;61721;42.206;25.320;2023-08-08T00:20:35;99092.50;;;24.50;38.77
73501;BME280;61721;42.206;25.320;2023-08-08T00:23:03;99079.97;;;24.85;38.34
73501;BME280;61721;42.206;25.320;2023-08-08T00:25:30;99084.91;;;24.88;38.25
73501;BME280;61721;42.206;25.320;2023-08-08T00:27:58;99093.34;;;24.56;39.09
73501;BME280;61721;42.206;25.320;2023-08-08T00:30:25;99086.56;;;24.79;38.73
73501;BME280;61721;42.206;25.320;2023-08-08T00:32:52;99090.97;;;24.85;38.08
73501;BME280;61721;42.206;25.320;2023-08-08T00:35:19;99093.25;;;25.03;38.02
73501;BME280;61721;42.206;25.320;2023-08-08T00:37:46;99096.59;;;25.20;37.88
73501;BME280;61721;42.206;25.320;2023-08-08T00:40:13;99105.94;;;25.14;38.43
73501;BME280;61721;42.206;25.320;2023-08-08T00:42:41;99104.84;;;25.26;38.10
73501;BME280;61721;42.206;25.320;2023-08-08T00:45:10;99112.31;;;25.30;37.85
73501;BME280;61721;42.206;25.320;2023-08-08T00:47:37;99108.44;;;25.41;37.91
73501;BME280;61721;42.206;25.320;2023-08-08T00:50:05;99117.50;;;25.06;38.06
73501;BME280;61721;42.206;25.320;2023-08-08T00:52:33;99106.91;;;24.73;38.47
73501;BME280;61721;42.206;25.320;2023-08-08T00:55:00;99106.44;;;24.96;38.41
73501;BME280;61721;42.206;25.320;2023-08-08T00:57:29;99107.78;;;24.83;38.56
73501;BME280;61721;42.206;25.320;2023-08-08T00:59:56;99106.78;;;25.40;37.73
73501;BME280;61721;42.206;25.320;2023-08-08T01:02:24;99107.56;;;25.05;38.63
73501;BME280;61721;42.206;25.320;2023-08-08T01:04:51;99117.25;;;24.40;41.13
73501;BME280;61721;42.206;25.320;2023-08-08T01:07:26;99117.91;;;24.15;43.39
73501;BME280;61721;42.206;25.320;2023-08-08T01:09:59;99118.06;;;24.41;42.87
73501;BME280;61721;42.206;25.320;2023-08-08T01:12:34;99116.69;;;24.43;43.95
73501;BME280;61721;42.206;25.320;2023-08-08T01:15:07;99111.03;;;23.76;46.54
73501;BME280;61721;42.206;25.320;2023-08-08T01:17:36;99113.34;;;23.89;46.56
73501;BME280;61721;42.206;25.320;2023-08-08T01:20:05;99111.00;;;23.71;47.18
73501;BME280;61721;42.206;25.320;2023-08-08T01:22:37;99112.69;;;23.77;47.46
73501;BME280;61721;42.206;25.320;2023-08-08T01:25:08;99115.56;;;23.92;47.13
73501;BME280;61721;42.206;25.320;2023-08-08T01:27:36;99115.22;;;23.83;47.26
73501;BME280;61721;42.206;25.320;2023-08-08T01:30:06;99114.94;;;23.53;48.02
73501;BME280;61721;42.206;25.320;2023-08-08T01:32:33;99114.28;;;24.10;46.93
73501;BME280;61721;42.206;25.320;2023-08-08T01:35:00;99119.75;;;24.05;46.78
73501;BME280;61721;42.206;25.320;2023-08-08T01:37:32;99121.75;;;24.14;46.73
73501;BME280;61721;42.206;25.320;2023-08-08T01:40:04;99125.53;;;24.03;47.04
73501;BME280;61721;42.206;25.320;2023-08-08T01:42:34;99121.63;;;24.36;46.36
73501;BME280;61721;42.206;25.320;2023-08-08T01:45:01;99122.53;;;24.52;45.67
73501;BME280;61721;42.206;25.320;2023-08-08T01:47:29;99131.97;;;24.71;44.93
73501;BME280;61721;42.206;25.320;2023-08-08T01:49:57;99130.34;;;24.85;44.77
73501;BME280;61721;42.206;25.320;2023-08-08T01:52:24;99134.19;;;24.74;45.54
73501;BME280;61721;42.206;25.320;2023-08-08T01:54:51;99134.56;;;24.36;47.00
73501;BME280;61721;42.206;25.320;2023-08-08T01:57:18;99129.84;;;24.31;46.79
73501;BME280;61721;42.206;25.320;2023-08-08T01:59:47;99133.06;;;24.75;45.95
73501;BME280;61721;42.206;25.320;2023-08-08T02:02:14;99128.19;;;24.92;45.10
73501;BME280;61721;42.206;25.320;2023-08-08T02:04:43;99136.44;;;24.92;45.42
73501;BME280;61721;42.206;25.320;2023-08-08T02:07:10;99136.38;;;24.77;45.50
73501;BME280;61721;42.206;25.320;2023-08-08T02:09:37;99134.72;;;24.76;45.58
73501;BME280;61721;42.206;25.320;2023-08-08T02:12:04;99145.16;;;24.69;45.75
73501;BME280;61721;42.206;25.320;2023-08-08T02:14:31;99144.63;;;24.67;45.89
73501;BME280;61721;42.206;25.320;2023-08-08T02:17:00;99150.59;;;24.49;46.93
73501;BME280;61721;42.206;25.320;2023-08-08T02:19:27;99146.28;;;24.73;45.72
73501;BME280;61721;42.206;25.320;2023-08-08T02:22:01;99148.09;;;24.47;47.16
73501;BME280;61721;42.206;25.320;2023-08-08T02:24:28;99147.41;;;24.77;46.01
73501;BME280;61721;42.206;25.320;2023-08-08T02:26:55;99154.03;;;24.81;45.89
73501;BME280;61721;42.206;25.320;2023-08-08T02:29:22;99155.06;;;24.65;46.38
73501;BME280;61721;42.206;25.320;2023-08-08T02:31:49;99159.06;;;24.37;47.23
73501;BME280;61721;42.206;25.320;2023-08-08T02:34:18;99162.59;;;24.33;47.77
73501;BME280;61721;42.206;25.320;2023-08-08T02:36:45;99163.72;;;24.37;47.37
73501;BME280;61721;42.206;25.320;2023-08-08T02:39:12;99160.44;;;24.40;47.27
73501;BME280;61721;42.206;25.320;2023-08-08T02:41:39;99165.38;;;24.38;47.62
73501;BME280;61721;42.206;25.320;2023-08-08T02:44:06;99164.09;;;24.55;47.26
73501;BME280;61721;42.206;25.320;2023-08-08T02:46:35;99167.41;;;24.52;46.89
73501;BME280;61721;42.206;25.320;2023-08-08T02:49:04;99172.06;;;24.52;47.61
73501;BME280;61721;42.206;25.320;2023-08-08T02:51:32;99168.16;;;24.43;47.43
73501;BME280;61721;42.206;25.320;2023-08-08T02:53:59;99179.16;;;24.38;47.40
73501;BME280;61721;42.206;25.320;2023-08-08T02:56:26;99180.19;;;24.26;48.01
73501;BME280;61721;42.206;25.320;2023-08-08T02:58:53;99188.00;;;24.45;47.84
73501;BME280;61721;42.206;25.320;2023-08-08T03:01:20;99187.19;;;24.49;47.52
73501;BME280;61721;42.206;25.320;2023-08-08T03:03:48;99194.31;;;24.40;47.41
73501;BME280;61721;42.206;25.320;2023-08-08T03:06:15;99191.03;;;23.74;49.68
73501;BME280;61721;42.206;25.320;2023-08-08T03:08:43;99202.50;;;23.66;48.68
73501;BME280;61721;42.206;25.320;2023-08-08T03:11:10;99202.94;;;23.26;49.01
73501;BME280;61721;42.206;25.320;2023-08-08T03:13:38;99200.94;;;24.07;47.31
73501;BME280;61721;42.206;25.320;2023-08-08T03:16:05;99207.69;;;23.94;46.31
73501;BME280;61721;42.206;25.320;2023-08-08T03:18:32;99214.88;;;24.33;45.54
73501;BME280;61721;42.206;25.320;2023-08-08T03:20:59;99204.81;;;24.11;46.01
73501;BME280;61721;42.206;25.320;2023-08-08T03:23:26;99204.44;;;23.98;45.98
73501;BME280;61721;42.206;25.320;2023-08-08T03:25:54;99200.41;;;23.51;47.77
73501;BME280;61721;42.206;25.320;2023-08-08T03:28:21;99196.75;;;23.68;47.60
73501;BME280;61721;42.206;25.320;2023-08-08T03:30:49;99212.19;;;23.47;49.24
73501;BME280;61721;42.206;25.320;2023-08-08T03:33:16;99203.38;;;23.18;50.42
73501;BME280;61721;42.206;25.320;2023-08-08T03:35:43;99210.84;;;22.57;52.89
73501;BME280;61721;42.206;25.320;2023-08-08T03:38:10;99212.00;;;22.61;52.99
73501;BME280;61721;42.206;25.320;2023-08-08T03:40:38;99207.50;;;22.55;53.37
73501;BME280;61721;42.206;25.320;2023-08-08T03:43:06;99219.88;;;22.35;54.08
73501;BME280;61721;42.206;25.320;2023-08-08T03:45:34;99228.28;;;22.67;53.17
73501;BME280;61721;42.206;25.320;2023-08-08T03:48:01;99239.94;;;22.96;52.16
73501;BME280;61721;42.206;25.320;2023-08-08T03:50:28;99236.06;;;22.76;52.84
73501;BME280;61721;42.206;25.320;2023-08-08T03:52:55;99243.91;;;22.67;53.42
73501;BME280;61721;42.206;25.320;2023-08-08T03:55:22;99247.91;;;22.59;53.44
73501;BME280;61721;42.206;25.320;2023-08-08T03:57:49;99251.25;;;23.00;52.07
73501;BME280;61721;42.206;25.320;2023-08-08T04:00:18;99254.78;;;22.23;54.23
73501;BME280;61721;42.206;25.320;2023-08-08T04:02:45;99256.69;;;22.23;54.59
73501;BME280;61721;42.206;25.320;2023-08-08T04:05:12;99253.28;;;22.32;54.08
73501;BME280;61721;42.206;25.320;2023-08-08T04:07:40;99262.59;;;22.15;54.94
73501;BME280;61721;42.206;25.320;2023-08-08T04:10:07;99261.28;;;22.89;53.21
73501;BME280;61721;42.206;25.320;2023-08-08T04:12:34;99267.88;;;22.55;54.48
73501;BME280;61721;42.206;25.320;2023-08-08T04:15:02;99271.81;;;22.97;53.32
73501;BME280;61721;42.206;25.320;2023-08-08T04:17:30;99280.44;;;23.06;52.35
73501;BME280;61721;42.206;25.320;2023-08-08T04:19:57;99287.00;;;22.83;53.07
73501;BME280;61721;42.206;25.320;2023-08-08T04:22:24;99288.88;;;23.21;52.22
73501;BME280;61721;42.206;25.320;2023-08-08T04:24:51;99293.38;;;22.72;53.64
73501;BME280;61721;42.206;25.320;2023-08-08T04:27:18;99294.50;;;22.54;54.71
73501;BME280;61721;42.206;25.320;2023-08-08T04:29:45;99300.34;;;22.41;56.13
73501;BME280;61721;42.206;25.320;2023-08-08T04:32:12;99304.16;;;22.07;56.22
73501;BME280;61721;42.206;25.320;2023-08-08T04:34:41;99305.16;;;22.17;55.24
73501;BME280;61721;42.206;25.320;2023-08-08T04:37:08;99322.22;;;21.62;55.92
73501;BME280;61721;42.206;25.320;2023-08-08T04:39:35;99328.13;;;21.43;56.58
73501;BME280;61721;42.206;25.320;2023-08-08T04:42:03;99337.78;;;22.02;54.60
73501;BME280;61721;42.206;25.320;2023-08-08T04:44:30;99339.00;;;21.66;55.35
73501;BME280;61721;42.206;25.320;2023-08-08T04:46:57;99337.66;;;21.40;56.81
73501;BME280;61721;42.206;25.320;2023-08-08T04:49:24;99341.63;;;21.32;58.54
73501;BME280;61721;42.206;25.320;2023-08-08T04:51:53;99344.59;;;21.31;59.22
73501;BME280;61721;42.206;25.320;2023-08-08T04:54:20;99349.84;;;21.32;59.62
73501;BME280;61721;42.206;25.320;2023-08-08T04:56:54;99351.88;;;21.25;60.25
73501;BME280;61721;42.206;25.320;2023-08-08T04:59:21;99356.16;;;21.10;60.64
73501;BME280;61721;42.206;25.320;2023-08-08T05:01:48;99362.53;;;20.75;61.76
73501;BME280;61721;42.206;25.320;2023-08-08T05:04:15;99370.13;;;20.73;62.23
73501;BME280;61721;42.206;25.320;2023-08-08T05:06:42;99377.63;;;20.54;62.26
73501;BME280;61721;42.206;25.320;2023-08-08T05:09:10;99392.38;;;20.65;62.17
73501;BME280;61721;42.206;25.320;2023-08-08T05:11:37;99405.91;;;21.18;60.07
73501;BME280;61721;42.206;25.320;2023-08-08T05:14:04;99399.03;;;20.69;61.70
73501;BME280;61721;42.206;25.320;2023-08-08T05:16:32;99416.28;;;20.58;62.49
73501;BME280;61721;42.206;25.320;2023-08-08T05:18:59;99417.91;;;20.47;62.63
73501;BME280;61721;42.206;25.320;2023-08-08T05:21:26;99420.47;;;20.30;63.85
73501;BME280;61721;42.206;25.320;2023-08-08T05:23:53;99428.78;;;20.65;62.53
73501;BME280;61721;42.206;25.320;2023-08-08T05:26:22;99428.13;;;20.40;64.13
73501;BME280;61721;42.206;25.320;2023-08-08T05:28:49;99433.88;;;20.50;63.81
73501;BME280;61721;42.206;25.320;2023-08-08T05:31:16;99442.81;;;20.57;63.45
73501;BME280;61721;42.206;25.320;2023-08-08T05:33:43;99451.38;;;20.96;62.61
73501;BME280;61721;42.206;25.320;2023-08-08T05:36:10;99445.91;;;20.96;62.24
73501;BME280;61721;42.206;25.320;2023-08-08T05:38:37;99454.84;;;20.91;62.72
73501;BME280;61721;42.206;25.320;2023-08-08T05:41:04;99461.97;;;20.69;63.84
73501;BME280;61721;42.206;25.320;2023-08-08T05:43:33;99458.78;;;20.12;66.83
73501;BME280;61721;42.206;25.320;2023-08-08T05:46:01;99472.56;;;20.35;65.99
73501;BME280;61721;42.206;25.320;2023-08-08T05:48:28;99474.41;;;19.93;67.43
73501;BME280;61721;42.206;25.320;2023-08-08T05:50:55;99482.88;;;20.52;65.73
73501;BME280;61721;42.206;25.320;2023-08-08T05:53:24;99491.63;;;19.57;69.11
73501;BME280;61721;42.206;25.320;2023-08-08T05:55:51;99494.78;;;20.09;67.42
73501;BME280;61721;42.206;25.320;2023-08-08T05:58:18;99500.47;;;20.26;66.57
73501;BME280;61721;42.206;25.320;2023-08-08T06:00:46;99505.09;;;20.25;66.55
73501;BME280;61721;42.206;25.320;2023-08-08T06:03:14;99513.47;;;20.12;67.81
73501;BME280;61721;42.206;25.320;2023-08-08T06:05:41;99523.53;;;20.48;66.85
73501;BME280;61721;42.206;25.320;2023-08-08T06:08:08;99519.72;;;20.01;68.67
73501;BME280;61721;42.206;25.320;2023-08-08T06:10:37;99528.50;;;20.03;68.39
73501;BME280;61721;42.206;25.320;2023-08-08T06:13:04;99531.53;;;19.58;69.75
73501;BME280;61721;42.206;25.320;2023-08-08T06:15:31;99536.13;;;20.01;68.81
73501;BME280;61721;42.206;25.320;2023-08-08T06:18:00;99544.81;;;19.30;71.57
73501;BME280;61721;42.206;25.320;2023-08-08T06:20:27;99537.28;;;19.50;70.78
73501;BME280;61721;42.206;25.320;2023-08-08T06:22:54;99537.13;;;19.45;71.17
73501;BME280;61721;42.206;25.320;2023-08-08T06:25:21;99544.34;;;18.83;73.45
73501;BME280;61721;42.206;25.320;2023-08-08T06:27:53;99544.78;;;19.11;72.37
73501;BME280;61721;42.206;25.320;2023-08-08T06:30:20;99554.91;;;19.29;71.40
73501;BME280;61721;42.206;25.320;2023-08-08T06:32:47;99560.25;;;19.67;70.33
73501;BME280;61721;42.206;25.320;2023-08-08T06:35:16;99565.72;;;19.86;69.78
73501;BME280;61721;42.206;25.320;2023-08-08T06:37:43;99569.44;;;18.98;72.45
73501;BME280;61721;42.206;25.320;2023-08-08T06:40:11;99580.34;;;18.98;73.54
73501;BME280;61721;42.206;25.320;2023-08-08T06:42:39;99577.44;;;18.93;72.17
73501;BME280;61721;42.206;25.320;2023-08-08T06:45:07;99588.34;;;18.93;72.27
73501;BME280;61721;42.206;25.320;2023-08-08T06:47:35;99600.22;;;19.37;70.76
73501;BME280;61721;42.206;25.320;2023-08-08T06:50:02;99607.50;;;19.18;71.00
73501;BME280;61721;42.206;25.320;2023-08-08T06:52:32;99607.75;;;19.66;69.77
73501;BME280;61721;42.206;25.320;2023-08-08T06:54:59;99611.50;;;19.90;69.23
73501;BME280;61721;42.206;25.320;2023-08-08T06:57:26;99621.31;;;20.53;66.28
73501;BME280;61721;42.206;25.320;2023-08-08T06:59:53;99616.97;;;20.63;65.62
73501;BME280;61721;42.206;25.320;2023-08-08T07:02:20;99616.88;;;19.29;69.53
73501;BME280;61721;42.206;25.320;2023-08-08T07:04:47;99609.91;;;20.19;67.52
73501;BME280;61721;42.206;25.320;2023-08-08T07:07:14;99607.56;;;20.23;67.71
73501;BME280;61721;42.206;25.320;2023-08-08T07:09:43;99595.91;;;20.64;66.70
73501;BME280;61721;42.206;25.320;2023-08-08T07:12:10;99602.16;;;20.83;65.94
73501;BME280;61721;42.206;25.320;2023-08-08T07:14:37;99591.09;;;20.48;67.06
73501;BME280;61721;42.206;25.320;2023-08-08T07:17:04;99621.38;;;20.64;67.25
73501;BME280;61721;42.206;25.320;2023-08-08T07:19:32;99624.63;;;21.15;65.48
73501;BME280;61721;42.206;25.320;2023-08-08T07:21:59;99619.94;;;21.03;65.72
73501;BME280;61721;42.206;25.320;2023-08-08T07:24:26;99616.94;;;20.93;66.00
73501;BME280;61721;42.206;25.320;2023-08-08T07:26:55;99624.78;;;20.90;66.26
73501;BME280;61721;42.206;25.320;2023-08-08T07:29:22;99611.19;;;20.83;66.59
73501;BME280;61721;42.206;25.320;2023-08-08T07:31:52;99615.59;;;20.84;65.91
73501;BME280;61721;42.206;25.320;2023-08-08T07:34:20;99611.28;;;21.18;65.25
73501;BME280;61721;42.206;25.320;2023-08-08T07:36:47;99621.63;;;21.46;64.51
73501;BME280;61721;42.206;25.320;2023-08-08T07:39:14;99626.44;;;20.79;66.32
73501;BME280;61721;42.206;25.320;2023-08-08T07:41:41;99626.78;;;20.83;66.53
73501;BME280;61721;42.206;25.320;2023-08-08T07:44:10;99623.63;;;20.97;66.57
73501;BME280;61721;42.206;25.320;2023-08-08T07:46:37;99615.91;;;21.06;66.57
73501;BME280;61721;42.206;25.320;2023-08-08T07:49:04;99618.97;;;21.28;66.16
73501;BME280;61721;42.206;25.320;2023-08-08T07:51:32;99616.56;;;20.90;66.69
73501;BME280;61721;42.206;25.320;2023-08-08T07:53:59;99623.19;;;21.12;66.74
73501;BME280;61721;42.206;25.320;2023-08-08T07:56:26;99626.75;;;21.13;67.19
73501;BME280;61721;42.206;25.320;2023-08-08T07:58:53;99620.69;;;20.32;69.27
73501;BME280;61721;42.206;25.320;2023-08-08T08:01:22;99620.00;;;20.00;69.35
73501;BME280;61721;42.206;25.320;2023-08-08T08:03:50;99613.31;;;20.33;69.12
73501;BME280;61721;42.206;25.320;2023-08-08T08:06:18;99617.88;;;20.21;69.49
73501;BME280;61721;42.206;25.320;2023-08-08T08:08:45;99629.41;;;20.89;67.40
73501;BME280;61721;42.206;25.320;2023-08-08T08:11:12;99626.88;;;19.66;71.34
73501;BME280;61721;42.206;25.320;2023-08-08T08:13:41;99631.41;;;19.97;70.00
73501;BME280;61721;42.206;25.320;2023-08-08T08:16:08;99627.69;;;20.10;69.35
73501;BME280;61721;42.206;25.320;2023-08-08T08:18:37;99634.81;;;19.43;71.06
73501;BME280;61721;42.206;25.320;2023-08-08T08:21:04;99638.53;;;19.98;69.47
73501;BME280;61721;42.206;25.320;2023-08-08T08:23:31;99646.69;;;20.23;68.77
73501;BME280;61721;42.206;25.320;2023-08-08T08:25:58;99644.41;;;20.57;67.28
73501;BME280;61721;42.206;25.320;2023-08-08T08:28:25;99645.06;;;20.70;66.96
73501;BME280;61721;42.206;25.320;2023-08-08T08:30:53;99659.25;;;21.09;65.91
73501;BME280;61721;42.206;25.320;2023-08-08T08:33:20;99651.19;;;20.84;66.17
73501;BME280;61721;42.206;25.320;2023-08-08T08:35:48;99649.41;;;20.90;65.56
73501;BME280;61721;42.206;25.320;2023-08-08T08:38:15;99661.00;;;21.22;65.12
73501;BME280;61721;42.206;25.320;2023-08-08T08:40:43;99654.72;;;21.33;64.99
73501;BME280;61721;42.206;25.320;2023-08-08T08:43:13;99646.06;;;20.76;65.85
73501;BME280;61721;42.206;25.320;2023-08-08T08:45:43;99644.41;;;20.57;67.05
73501;BME280;61721;42.206;25.320;2023-08-08T08:48:14;99653.44;;;20.87;66.42
73501;BME280;61721;42.206;25.320;2023-08-08T08:50:42;99656.13;;;20.64;66.29
73501;BME280;61721;42.206;25.320;2023-08-08T08:53:13;99664.16;;;20.89;66.43
73501;BME280;61721;42.206;25.320;2023-08-08T08:55:40;99658.25;;;21.22;65.57
73501;BME280;61721;42.206;25.320;2023-08-08T08:58:08;99657.84;;;21.48;64.95
73501;BME280;61721;42.206;25.320;2023-08-08T09:00:36;99657.16;;;21.64;64.79
73501;BME280;61721;42.206;25.320;2023-08-08T09:03:04;99660.47;;;21.66;64.40
73501;BME280;61721;42.206;25.320;2023-08-08T09:05:31;99656.19;;;21.70;64.45
73501;BME280;61721;42.206;25.320;2023-08-08T09:08:00;99648.84;;;22.06;64.50
73501;BME280;61721;42.206;25.320;2023-08-08T09:10:30;99660.91;;;21.40;65.68
73501;BME280;61721;42.206;25.320;2023-08-08T09:13:01;99648.09;;;21.76;64.49
73501;BME280;61721;42.206;25.320;2023-08-08T09:15:30;99659.19;;;21.92;64.56
73501;BME280;61721;42.206;25.320;2023-08-08T09:17:58;99649.06;;;22.16;61.96
73501;BME280;61721;42.206;25.320;2023-08-08T09:20:26;99641.31;;;22.13;63.36
73501;BME280;61721;42.206;25.320;2023-08-08T09:22:57;99635.34;;;22.16;62.11
73501;BME280;61721;42.206;25.320;2023-08-08T09:25:26;99639.06;;;22.10;62.49
73501;BME280;61721;42.206;25.320;2023-08-08T09:28:03;99639.84;;;22.46;61.04
73501;BME280;61721;42.206;25.320;2023-08-08T09:30:30;99643.44;;;21.76;61.50
73501;BME280;61721;42.206;25.320;2023-08-08T09:32:58;99641.56;;;22.12;58.80
73501;BME280;61721;42.206;25.320;2023-08-08T09:35:25;99637.69;;;22.48;59.72
73501;BME280;61721;42.206;25.320;2023-08-08T09:37:53;99641.88;;;22.79;58.71
73501;BME280;61721;42.206;25.320;2023-08-08T09:40:21;99637.97;;;21.88;60.94
73501;BME280;61721;42.206;25.320;2023-08-08T09:42:50;99637.50;;;21.91;60.17
73501;BME280;61721;42.206;25.320;2023-08-08T09:45:20;99620.31;;;22.30;59.08
73501;BME280;61721;42.206;25.320;2023-08-08T09:47:49;99624.63;;;22.03;60.45
73501;BME280;61721;42.206;25.320;2023-08-08T09:50:26;99624.47;;;22.73;59.16
73501;BME280;61721;42.206;25.320;2023-08-08T09:52:53;99622.38;;;23.37;57.88
73501;BME280;61721;42.206;25.320;2023-08-08T09:55:21;99615.28;;;22.79;58.33
73501;BME280;61721;42.206;25.320;2023-08-08T09:57:49;99610.72;;;23.63;56.68
73501;BME280;61721;42.206;25.320;2023-08-08T10:00:19;99607.75;;;22.86;54.45
73501;BME280;61721;42.206;25.320;2023-08-08T10:02:46;99607.41;;;22.71;55.03
73501;BME280;61721;42.206;25.320;2023-08-08T10:05:14;99609.19;;;23.06;55.05
73501;BME280;61721;42.206;25.320;2023-08-08T10:07:41;99602.81;;;23.34;54.49
73501;BME280;61721;42.206;25.320;2023-08-08T10:10:09;99603.28;;;23.81;53.79
73501;BME280;61721;42.206;25.320;2023-08-08T10:12:37;99597.91;;;23.36;51.76
73501;BME280;61721;42.206;25.320;2023-08-08T10:15:07;99608.72;;;23.76;51.37
73501;BME280;61721;42.206;25.320;2023-08-08T10:17:37;99604.31;;;23.24;53.19
73501;BME280;61721;42.206;25.320;2023-08-08T10:20:06;99604.56;;;23.23;52.63
73501;BME280;61721;42.206;25.320;2023-08-08T10:22:37;99608.19;;;23.45;53.11
73501;BME280;61721;42.206;25.320;2023-08-08T10:25:08;99602.56;;;24.46;51.08
73501;BME280;61721;42.206;25.320;2023-08-08T10:27:37;99607.19;;;23.85;51.96
73501;BME280;61721;42.206;25.320;2023-08-08T10:30:07;99604.72;;;23.16;51.96
73501;BME280;61721;42.206;25.320;2023-08-08T10:32:41;99602.66;;;23.40;52.67
73501;BME280;61721;42.206;25.320;2023-08-08T10:35:09;99596.91;;;23.58;51.37
73501;BME280;61721;42.206;25.320;2023-08-08T10:37:37;99584.44;;;23.89;52.01
73501;BME280;61721;42.206;25.320;2023-08-08T10:40:06;99597.38;;;23.72;51.64
73501;BME280;61721;42.206;25.320;2023-08-08T10:42:43;99591.56;;;23.69;51.43
73501;BME280;61721;42.206;25.320;2023-08-08T10:45:11;99595.84;;;24.37;51.61
73501;BME280;61721;42.206;25.320;2023-08-08T10:47:42;99589.53;;;23.81;51.53
73501;BME280;61721;42.206;25.320;2023-08-08T10:50:11;99588.44;;;24.64;51.05
73501;BME280;61721;42.206;25.320;2023-08-08T10:52:50;99587.69;;;24.47;48.45
73501;BME280;61721;42.206;25.320;2023-08-08T10:55:22;99583.00;;;24.25;49.11
73501;BME280;61721;42.206;25.320;2023-08-08T10:57:57;99581.78;;;24.60;48.65
73501;BME280;61721;42.206;25.320;2023-08-08T11:00:27;99586.41;;;24.54;48.20
73501;BME280;61721;42.206;25.320;2023-08-08T11:02:57;99586.41;;;24.33;48.33
73501;BME280;61721;42.206;25.320;2023-08-08T11:05:25;99579.22;;;24.75;48.43
73501;BME280;61721;42.206;25.320;2023-08-08T11:07:52;99581.41;;;25.00;47.76
73501;BME280;61721;42.206;25.320;2023-08-08T11:10:20;99577.50;;;24.69;47.35
73501;BME280;61721;42.206;25.320;2023-08-08T11:13:00;99573.31;;;24.40;47.25
73501;BME280;61721;42.206;25.320;2023-08-08T11:15:28;99575.22;;;24.39;47.25
73501;BME280;61721;42.206;25.320;2023-08-08T11:17:58;99577.63;;;25.38;44.88
73501;BME280;61721;42.206;25.320;2023-08-08T11:20:29;99582.56;;;25.04;45.52
73501;BME280;61721;42.206;25.320;2023-08-08T11:22:57;99582.22;;;25.28;46.45
73501;BME280;61721;42.206;25.320;2023-08-08T11:25:26;99570.50;;;25.10;46.04
73501;BME280;61721;42.206;25.320;2023-08-08T11:27:54;99565.50;;;25.71;45.67
73501;BME280;61721;42.206;25.320;2023-08-08T11:30:23;99567.41;;;25.34;45.55
73501;BME280;61721;42.206;25.320;2023-08-08T11:32:51;99555.66;;;25.48;44.66
73501;BME280;61721;42.206;25.320;2023-08-08T11:35:21;99551.25;;;25.52;46.15
73501;BME280;61721;42.206;25.320;2023-08-08T11:37:49;99545.75;;;25.52;44.99
73501;BME280;61721;42.206;25.320;2023-08-08T11:40:19;99553.06;;;25.69;43.17
73501;BME280;61721;42.206;25.320;2023-08-08T11:42:47;99539.59;;;25.77;42.11
73501;BME280;61721;42.206;25.320;2023-08-08T11:45:16;99537.53;;;25.63;42.37
73501;BME280;61721;42.206;25.320;2023-08-08T11:47:43;99538.84;;;25.92;42.31
73501;BME280;61721;42.206;25.320;2023-08-08T11:50:10;99533.66;;;26.11;42.40
73501;BME280;61721;42.206;25.320;2023-08-08T11:52:42;99527.34;;;25.63;41.83
73501;BME280;61721;42.206;25.320;2023-08-08T11:55:09;99528.91;;;25.49;42.28
73501;BME280;61721;42.206;25.320;2023-08-08T11:57:37;99523.69;;;25.52;42.26
73501;BME280;61721;42.206;25.320;2023-08-08T12:00:06;99514.19;;;25.33;41.92
73501;BME280;61721;42.206;25.320;2023-08-08T12:02:34;99519.28;;;25.51;42.58
73501;BME280;61721;42.206;25.320;2023-08-08T12:05:04;99513.06;;;25.66;42.08
73501;BME280;61721;42.206;25.320;2023-08-08T12:07:32;99507.50;;;26.24;41.71
73501;BME280;61721;42.206;25.320;2023-08-08T12:10:03;99494.69;;;25.87;41.35
73501;BME280;61721;42.206;25.320;2023-08-08T12:12:31;99506.63;;;26.08;41.23
73501;BME280;61721;42.206;25.320;2023-08-08T12:15:03;99501.16;;;26.23;40.35
73501;BME280;61721;42.206;25.320;2023-08-08T12:17:31;99499.19;;;26.13;40.60
73501;BME280;61721;42.206;25.320;2023-08-08T12:20:00;99498.84;;;25.90;41.03
73501;BME280;61721;42.206;25.320;2023-08-08T12:22:28;99500.59;;;26.21;41.03
73501;BME280;61721;42.206;25.320;2023-08-08T12:24:55;99493.66;;;26.13;41.01
73501;BME280;61721;42.206;25.320;2023-08-08T12:27:23;99488.84;;;26.66;40.21
73501;BME280;61721;42.206;25.320;2023-08-08T12:29:50;99489.44;;;26.89;40.02
73501;BME280;61721;42.206;25.320;2023-08-08T12:32:18;99481.09;;;26.48;39.13
73501;BME280;61721;42.206;25.320;2023-08-08T12:34:46;99477.31;;;27.00;38.84
73501;BME280;61721;42.206;25.320;2023-08-08T12:37:13;99469.25;;;26.73;39.34
73501;BME280;61721;42.206;25.320;2023-08-08T12:39:40;99472.53;;;26.49;39.82
73501;BME280;61721;42.206;25.320;2023-08-08T12:42:07;99471.19;;;26.93;39.48
73501;BME280;61721;42.206;25.320;2023-08-08T12:44:35;99459.31;;;26.77;38.61
73501;BME280;61721;42.206;25.320;2023-08-08T12:47:03;99457.94;;;26.74;38.37
73501;BME280;61721;42.206;25.320;2023-08-08T12:49:32;99458.22;;;27.24;39.01
73501;BME280;61721;42.206;25.320;2023-08-08T12:52:04;99455.75;;;26.97;38.57
73501;BME280;61721;42.206;25.320;2023-08-08T12:54:35;99446.03;;;26.79;37.67